Terminal Aerodrome Forecast
Issued by NWS St Louis, MO

Home | Current Version | Previous Version | Graphics & Text | Print | Product List | Glossary On
Versions: 1 2 3 4 5 6 7 8 9 10 11 12 13 14 15 16 17 18 19 20 21 22
000
FTUS43 KLSX 130300 AAA
TAFSTL
TAF AMD
KSTL 130314Z 1303/1406 21008KT P6SM BKN250
     FM131100 26008KT P6SM VCSH BKN050 OVC100
     FM131400 27008KT P6SM SCT050 BKN100
     FM132000 32010KT P6SM VCTS SCT050CB BKN100
     FM140100 33005KT P6SM SCT250=

USA.gov is the U.S. government's official web portal to all federal, state and local government web resources and services.